Terminal Aerodrome Forecast
Issued by NWS

Home | Current Version | Previous Version | Text Only | Print | Product List | Glossary On
Versions: 1 2 3 4 5 6 7 8 9 10 11 12 13 14 15 16 17 18 19 20 21 22 23 24 25 26 27 28
343
FTUS43 KDLH 271829 AAA
TAFBRD
TAF AMD
KBRD 271829Z 2718/2818 11005KT P6SM -RA OVC015
     FM280200 06004KT 4SM -SHRA OVC025
     FM280400 04003KT 2SM -SHRA OVC007
     FM280600 02002KT 2SM -DZ OVC004
     FM281400 VRB03KT 4SM BR OVC007
     FM281700 VRB03KT P6SM OVC015=

USA.gov is the U.S. government's official web portal to all federal, state and local government web resources and services.